Time;durP1;ratioP1;P1;durP2;ratioP2;P2;SDS_P1;SDS_P2;PMS_P1;PMS_P2;Temp;Humidity;BMP_temperature;BMP_pressure;BME280_temperature;BME280_humidity;BME280_pressure;Samples;Min_cycle;Max_cycle;Signal;HPM_P1;HPM_P2
2023/08/31 00:01:12;;;;;;;1.20;1.10;;;16.10;99.90;;;16.29;87.53;99994.81;4957034;28;20778;-63
2023/08/31 00:03:39;;;;;;;0.77;0.77;;;16.00;99.90;;;16.22;88.59;99996.44;4970103;28;21000;-63
2023/08/31 00:06:07;;;;;;;1.07;1.07;;;15.90;99.90;;;16.15;88.94;99993.63;4967567;28;20962;-63
2023/08/31 00:08:35;;;;;;;1.10;1.10;;;15.90;99.90;;;16.09;89.28;99989.00;4969955;28;21089;-64
2023/08/31 00:11:02;;;;;;;0.87;0.87;;;15.80;99.90;;;16.02;89.08;99992.44;4969896;28;20712;-63
2023/08/31 00:13:28;;;;;;;1.07;1.07;;;15.70;99.90;;;16.01;89.17;99996.91;4966777;28;20749;-64
2023/08/31 00:15:57;;;;;;;0.90;0.90;;;15.70;99.90;;;16.03;89.88;99999.34;4968853;28;21223;-62
2023/08/31 00:18:25;;;;;;;1.20;1.20;;;15.70;99.90;;;16.05;90.25;100006.13;4993429;28;20663;-64
2023/08/31 00:20:53;;;;;;;0.93;0.93;;;15.70;99.90;;;16.11;91.00;99996.75;4969356;28;21046;-64
2023/08/31 00:23:20;;;;;;;1.00;1.00;;;15.80;99.90;;;16.13;90.60;99998.22;4999836;28;20655;-63
2023/08/31 00:25:48;;;;;;;1.23;1.20;;;15.80;99.90;;;16.18;90.38;99993.28;4969336;28;20688;-64
2023/08/31 00:28:18;;;;;;;0.97;0.97;;;15.80;99.90;;;16.21;90.04;99992.16;4968393;28;20635;-64
2023/08/31 00:30:46;;;;;;;0.80;0.80;;;15.80;99.90;;;16.22;89.18;100001.72;4964187;28;20643;-63
2023/08/31 00:33:14;;;;;;;4.37;1.40;;;15.90;99.90;;;16.21;89.65;100000.03;4966903;28;20720;-64
2023/08/31 00:35:45;;;;;;;0.83;0.83;;;15.90;99.90;;;16.19;89.17;99999.38;4962749;28;20654;-64
2023/08/31 00:38:14;;;;;;;0.97;0.97;;;15.90;99.90;;;16.18;89.85;100005.66;4961240;28;20627;-63
2023/08/31 00:40:45;;;;;;;1.17;1.17;;;15.80;99.90;;;16.19;89.54;100007.28;4967295;28;20712;-63
2023/08/31 00:43:15;;;;;;;0.90;0.90;;;15.90;99.90;;;16.19;89.63;100010.75;4961341;28;21057;-64
2023/08/31 00:45:44;;;;;;;1.20;1.10;;;15.90;99.90;;;16.20;90.27;100014.22;4967157;28;20643;-64
2023/08/31 00:48:14;;;;;;;0.90;0.90;;;15.90;99.90;;;16.20;89.96;100008.94;4968647;28;20622;-63
2023/08/31 00:50:41;;;;;;;1.30;1.20;;;15.90;99.90;;;16.19;90.00;100005.47;4965946;28;21087;-63
2023/08/31 00:53:09;;;;;;;1.63;1.00;;;15.90;99.90;;;16.19;90.44;100002.84;4967930;28;20650;-64
2023/08/31 00:55:36;;;;;;;1.10;1.10;;;15.90;99.90;;;16.20;90.73;100008.94;4967604;28;21005;-64
2023/08/31 00:58:05;;;;;;;1.30;1.23;;;15.90;99.90;;;16.17;90.38;100006.63;4967624;28;21061;-64
2023/08/31 01:01:08;;;;;;;1.40;1.27;;;15.80;99.90;;;16.13;90.82;100007.94;4964772;28;21104;-64
2023/08/31 01:04:23;;;;;;;1.60;1.50;;;15.80;99.90;;;16.11;90.72;100012.53;4964417;28;20660;-64
2023/08/31 01:07:53;;;;;;;0.80;0.80;;;15.80;99.90;;;16.12;90.89;100014.19;4970122;28;20749;-64
2023/08/31 01:11:12;;;;;;;1.27;1.17;;;15.80;99.90;;;16.10;90.74;100019.59;4909013;28;20647;-63
2023/08/31 01:13:44;;;;;;;0.97;0.97;;;15.80;99.90;;;16.09;91.01;100023.22;4945141;28;20661;-64
2023/08/31 01:16:13;;;;;;;1.00;1.00;;;15.80;99.90;;;16.04;91.01;100019.41;4967881;28;20726;-64
2023/08/31 01:18:40;;;;;;;1.70;1.60;;;15.80;99.90;;;16.02;91.34;100016.13;4964004;28;21196;-63
2023/08/31 01:21:29;;;;;;;1.37;1.30;;;15.70;99.90;;;16.03;91.57;100018.59;4988032;28;20723;-63
2023/08/31 01:23:58;;;;;;;1.53;1.43;;;15.70;99.90;;;16.06;91.79;100027.97;4966711;28;20646;-63
2023/08/31 01:26:26;;;;;;;1.23;1.13;;;15.70;99.90;;;16.08;91.81;100026.00;4959305;28;20640;-63
2023/08/31 01:28:55;;;;;;;2.30;1.20;;;15.80;99.90;;;16.06;90.97;100033.22;4969131;28;20734;-64
2023/08/31 01:31:22;;;;;;;1.30;1.23;;;15.80;99.90;;;16.07;91.31;100032.25;4965942;28;20635;-64
2023/08/31 01:33:49;;;;;;;1.23;1.23;;;15.80;99.90;;;16.02;91.43;100029.28;4967533;28;20669;-63
2023/08/31 01:36:29;;;;;;;1.50;1.40;;;15.70;99.90;;;16.00;91.36;100036.50;4968533;28;21316;-63
2023/08/31 01:39:25;;;;;;;1.03;1.00;;;15.70;99.90;;;16.01;92.66;100032.91;4966350;28;20635;-63
2023/08/31 01:41:58;;;;;;;1.60;1.47;;;15.70;99.90;;;16.00;92.35;100034.69;4964988;28;20762;-64
2023/08/31 01:44:26;;;;;;;1.50;1.23;;;15.70;99.90;;;15.99;91.29;100032.25;4966572;28;20730;-64
2023/08/31 01:46:54;;;;;;;1.50;1.40;;;15.70;99.90;;;15.93;91.68;100043.41;4964407;28;20746;-64
2023/08/31 01:49:21;;;;;;;1.07;1.07;;;15.60;99.90;;;15.84;91.89;100036.44;4965986;28;21212;-63
2023/08/31 01:51:48;;;;;;;2.00;1.37;;;15.50;99.90;;;15.77;92.08;100036.25;4964100;28;20757;-63
2023/08/31 01:54:15;;;;;;;1.47;1.37;;;15.50;99.90;;;15.72;92.05;100038.53;4968383;28;20671;-64
2023/08/31 01:56:42;;;;;;;2.17;1.53;;;15.50;99.90;;;15.68;92.87;100039.00;4961897;28;21058;-63
2023/08/31 01:59:09;;;;;;;1.30;1.23;;;15.40;99.90;;;15.60;92.74;100041.59;4969053;28;20659;-64
2023/08/31 02:01:36;;;;;;;1.43;1.33;;;15.30;99.90;;;15.56;93.34;100045.50;4964200;28;20775;-64
2023/08/31 02:04:03;;;;;;;1.20;1.10;;;15.30;99.90;;;15.47;93.18;100040.22;4968899;28;20639;-63
2023/08/31 02:06:30;;;;;;;1.30;1.20;;;15.20;99.90;;;15.39;93.42;100042.75;4964489;28;20639;-63
2023/08/31 02:08:57;;;;;;;1.83;1.73;;;15.10;99.90;;;15.34;93.24;100042.41;4968270;28;20623;-64
2023/08/31 02:11:25;;;;;;;1.60;1.50;;;15.10;99.90;;;15.34;93.94;100047.66;4968252;28;20790;-63
2023/08/31 02:13:52;;;;;;;2.53;1.30;;;15.10;99.90;;;15.35;93.69;100057.16;4964829;28;20643;-64
2023/08/31 02:16:19;;;;;;;1.90;1.80;;;15.10;99.90;;;15.33;93.93;100047.81;4968863;28;20764;-64
2023/08/31 02:18:46;;;;;;;1.70;1.60;;;15.10;99.90;;;15.28;93.30;100052.69;4967290;28;20643;-64
2023/08/31 02:21:13;;;;;;;1.60;1.50;;;15.00;99.90;;;15.26;92.73;100059.91;4968692;28;20663;-64
2023/08/31 02:23:40;;;;;;;1.47;1.37;;;15.00;99.90;;;15.24;92.98;100067.13;4961880;28;21224;-63
2023/08/31 02:26:07;;;;;;;1.43;1.33;;;15.00;99.90;;;15.20;93.29;100068.41;4961343;28;20720;-63
2023/08/31 02:28:34;;;;;;;1.73;1.63;;;14.90;99.90;;;15.18;93.46;100071.16;4968152;28;20749;-63
2023/08/31 02:31:03;;;;;;;1.73;1.67;;;14.90;99.90;;;15.20;93.72;100074.50;4967197;28;20712;-64
2023/08/31 02:33:30;;;;;;;1.60;1.60;;;14.90;99.90;;;15.20;93.79;100071.88;4966386;28;20655;-63
2023/08/31 02:35:57;;;;;;;1.57;1.47;;;14.90;99.90;;;15.25;93.26;100076.66;4967622;28;20638;-64
2023/08/31 02:38:24;;;;;;;2.23;2.00;;;14.90;99.90;;;15.26;93.52;100079.16;4963307;28;20751;-64
2023/08/31 02:40:51;;;;;;;1.97;1.87;;;15.00;99.90;;;15.28;93.35;100082.44;4967397;28;20857;-64
2023/08/31 02:43:18;;;;;;;1.37;1.30;;;15.00;99.90;;;15.30;93.04;100091.00;4963679;28;21048;-64
2023/08/31 02:45:45;;;;;;;1.90;1.80;;;15.00;99.90;;;15.31;92.54;100087.38;4968763;28;21086;-64
2023/08/31 02:48:13;;;;;;;1.87;1.77;;;15.00;99.90;;;15.28;91.77;100082.44;4964992;28;20685;-64
2023/08/31 02:50:40;;;;;;;1.70;1.60;;;15.00;99.90;;;15.27;91.56;100079.94;4968265;28;21101;-64
2023/08/31 02:53:07;;;;;;;1.90;1.80;;;15.00;99.90;;;15.27;91.53;100078.16;4970039;28;20695;-63
2023/08/31 02:55:34;;;;;;;1.70;1.60;;;15.00;99.90;;;15.26;92.32;100067.78;4967878;28;20627;-63
2023/08/31 02:58:01;;;;;;;1.80;1.70;;;15.00;99.90;;;15.28;91.81;100076.34;4966244;28;21216;-63
2023/08/31 03:00:28;;;;;;;1.90;1.80;;;15.00;99.90;;;15.29;91.46;100075.38;4965612;28;21114;-64
2023/08/31 03:02:55;;;;;;;1.60;1.50;;;15.00;99.90;;;15.28;91.67;100074.56;4955936;28;20679;-63
2023/08/31 03:05:22;;;;;;;1.60;1.50;;;15.00;99.90;;;15.28;91.65;100066.66;4965172;28;20721;-64
2023/08/31 03:07:49;;;;;;;1.93;1.83;;;15.00;99.90;;;15.26;91.77;100068.63;4964747;28;20786;-64
2023/08/31 03:10:16;;;;;;;2.27;2.07;;;15.00;99.90;;;15.30;91.52;100075.22;4965954;28;20640;-63
2023/08/31 03:12:42;;;;;;;2.20;1.73;;;15.00;99.90;;;15.31;91.59;100078.69;4964743;28;20753;-64
2023/08/31 03:15:09;;;;;;;2.13;1.93;;;15.00;99.90;;;15.32;90.91;100083.78;4963373;28;21292;-64
2023/08/31 03:17:37;;;;;;;1.60;1.60;;;15.00;99.90;;;15.31;90.94;100087.38;4965319;28;20674;-64
2023/08/31 03:20:06;;;;;;;1.40;1.30;;;15.00;99.90;;;15.32;90.24;100083.78;4967232;28;21071;-64
2023/08/31 03:22:33;;;;;;;1.80;1.17;;;15.00;99.90;;;15.28;89.13;100086.88;4965013;28;20679;-63
2023/08/31 03:25:00;;;;;;;1.60;1.50;;;15.00;99.90;;;15.20;89.13;100092.91;4966922;28;20628;-63
2023/08/31 03:27:27;;;;;;;1.90;1.80;;;15.00;99.90;;;15.17;89.58;100090.56;4965986;28;20735;-63
2023/08/31 03:29:54;;;;;;;2.30;2.20;;;14.90;99.90;;;15.16;90.56;100096.78;4965789;28;20986;-64
2023/08/31 03:32:21;;;;;;;1.70;1.70;;;14.90;99.90;;;15.17;90.46;100101.06;4967295;28;20707;-64
2023/08/31 03:34:48;;;;;;;2.10;1.90;;;14.90;99.90;;;15.19;89.85;100096.50;4965950;28;20682;-63
2023/08/31 03:37:14;;;;;;;2.07;1.87;;;14.90;99.90;;;15.18;89.29;100107.97;4970937;28;21281;-64
2023/08/31 03:39:42;;;;;;;1.53;1.43;;;14.90;99.90;;;15.16;88.58;100103.88;4965108;28;20678;-63
2023/08/31 03:42:09;;;;;;;1.87;1.70;;;14.90;99.90;;;15.08;88.70;100107.22;4969575;28;20671;-64
2023/08/31 03:44:37;;;;;;;1.80;1.57;;;14.80;99.90;;;15.03;88.91;100106.88;4975284;28;21030;-63
2023/08/31 03:47:04;;;;;;;1.60;1.33;;;14.80;99.90;;;14.92;89.77;100109.72;4966621;28;21586;-63
2023/08/31 03:49:34;;;;;;;2.17;1.97;;;14.70;99.90;;;14.84;89.65;100112.28;4967368;28;20666;-63
2023/08/31 03:52:01;;;;;;;1.97;1.70;;;14.60;99.90;;;14.77;90.41;100108.59;4970457;28;20655;-63
2023/08/31 03:54:28;;;;;;;1.63;1.53;;;14.50;99.90;;;14.70;90.77;100115.41;4968432;28;20646;-64
2023/08/31 03:56:55;;;;;;;1.47;1.40;;;14.40;99.90;;;14.69;90.74;100119.03;4969219;28;20631;-64
2023/08/31 03:59:22;;;;;;;2.10;1.47;;;14.40;99.90;;;14.65;91.64;100120.31;4968270;28;20661;-64
2023/08/31 04:01:49;;;;;;;1.70;1.60;;;14.40;99.90;;;14.62;91.68;100117.97;4968115;28;21103;-63
2023/08/31 04:04:16;;;;;;;2.40;1.83;;;14.30;99.90;;;14.61;91.93;100118.91;4973753;28;21555;-64
2023/08/31 04:06:43;;;;;;;2.10;1.80;;;14.30;99.90;;;14.57;91.92;100122.81;4970811;28;20715;-63
2023/08/31 04:09:10;;;;;;;1.90;1.77;;;14.30;99.90;;;14.56;92.09;100127.25;4968439;28;20635;-63
2023/08/31 04:11:37;;;;;;;1.60;1.50;;;14.30;99.90;;;14.62;92.27;100123.22;4972297;28;20766;-63
2023/08/31 04:14:04;;;;;;;2.00;1.77;;;14.30;99.90;;;14.64;91.90;100127.34;4967912;28;20682;-63
2023/08/31 04:16:32;;;;;;;1.83;1.73;;;14.40;99.90;;;14.63;92.06;100133.56;4970610;28;21010;-63
2023/08/31 04:18:59;;;;;;;1.87;1.37;;;14.40;99.90;;;14.62;92.35;100126.66;4970388;28;20641;-64
2023/08/31 04:21:26;;;;;;;3.07;1.70;;;14.30;99.90;;;14.60;91.90;100133.03;4970883;28;21214;-64
2023/08/31 04:23:53;;;;;;;1.73;1.63;;;14.30;99.90;;;14.58;91.88;100135.81;4968844;28;20688;-63
2023/08/31 04:26:20;;;;;;;1.93;1.80;;;14.30;99.90;;;14.56;92.32;100144.81;4970338;28;20722;-64
2023/08/31 04:28:47;;;;;;;1.60;1.50;;;14.30;99.90;;;14.57;92.13;100143.81;4964872;28;21218;-63
2023/08/31 04:31:14;;;;;;;2.37;2.20;;;14.30;99.90;;;14.56;92.12;100140.41;4965196;28;21310;-64
2023/08/31 04:33:41;;;;;;;2.40;1.87;;;14.30;99.90;;;14.56;92.12;100144.81;4969058;28;20662;-63
2023/08/31 04:36:08;;;;;;;1.67;1.57;;;14.30;99.90;;;14.57;92.10;100143.81;4966516;28;20677;-63
2023/08/31 04:38:35;;;;;;;1.87;1.77;;;14.30;99.90;;;14.56;91.53;100150.06;4969508;28;20635;-64
2023/08/31 04:41:02;;;;;;;1.90;1.80;;;14.30;99.90;;;14.51;91.59;100149.66;4967024;28;20639;-63
2023/08/31 04:43:29;;;;;;;3.40;2.03;;;14.20;99.90;;;14.52;92.37;100149.50;4964791;28;20679;-63
2023/08/31 04:45:56;;;;;;;1.43;1.33;;;14.20;99.90;;;14.57;92.37;100149.91;4968915;28;20689;-64
2023/08/31 04:48:23;;;;;;;3.23;1.60;;;14.30;99.90;;;14.61;91.29;100153.88;4970060;28;20641;-64
2023/08/31 04:50:50;;;;;;;1.87;1.77;;;14.30;99.90;;;14.61;91.52;100153.06;4968214;28;20678;-63
2023/08/31 04:53:17;;;;;;;3.63;2.30;;;14.30;99.90;;;14.59;91.06;100161.09;4958987;28;20783;-64
2023/08/31 04:55:44;;;;;;;1.93;1.83;;;14.30;99.90;;;14.61;90.64;100159.13;4993834;28;20665;-64
2023/08/31 04:58:11;;;;;;;3.20;2.10;;;14.30;99.90;;;14.63;90.80;100166.84;4971159;28;20645;-64
2023/08/31 05:00:39;;;;;;;3.23;2.10;;;14.30;99.90;;;14.67;90.87;100166.41;4965641;28;20741;-63
2023/08/31 05:03:06;;;;;;;2.10;1.80;;;14.40;99.90;;;14.67;91.17;100169.03;4970116;28;21106;-63
2023/08/31 05:05:33;;;;;;;1.87;1.67;;;14.40;99.90;;;14.72;90.24;100169.44;4966505;28;21203;-63
2023/08/31 05:08:03;;;;;;;3.17;1.93;;;14.40;99.90;;;14.77;90.10;100179.50;4967409;28;20639;-63
2023/08/31 05:10:30;;;;;;;1.97;1.70;;;14.50;99.90;;;14.81;90.06;100178.22;4967516;28;20636;-63
2023/08/31 05:12:57;;;;;;;2.60;2.07;;;14.50;99.90;;;14.86;89.64;100180.41;4965906;28;20720;-63
2023/08/31 05:15:27;;;;;;;3.23;2.00;;;14.60;99.90;;;14.88;89.40;100184.56;4967609;28;21459;-64
2023/08/31 05:17:54;;;;;;;1.00;0.97;;;14.60;99.90;;;14.89;88.41;100191.44;4967001;28;20734;-64
2023/08/31 05:20:23;;;;;;;1.40;1.30;;;14.60;99.90;;;14.83;88.64;100181.53;4969525;28;20642;-64
2023/08/31 05:22:50;;;;;;;2.73;1.50;;;14.60;99.90;;;14.82;88.40;100186.94;4966909;28;20683;-63
2023/08/31 05:25:17;;;;;;;2.70;1.67;;;14.50;99.90;;;14.80;88.69;100187.06;4966525;28;20631;-64
2023/08/31 05:27:44;;;;;;;1.70;1.60;;;14.50;99.90;;;14.80;88.54;100187.06;4965963;28;20679;-64
2023/08/31 05:30:12;;;;;;;2.60;1.53;;;14.50;99.90;;;14.82;88.50;100193.03;4971621;28;20686;-64
2023/08/31 05:32:38;;;;;;;1.30;1.30;;;14.50;99.90;;;14.82;88.39;100195.66;4970101;28;21100;-64
2023/08/31 05:35:07;;;;;;;1.33;1.33;;;14.50;99.90;;;14.86;88.39;100202.25;4969584;28;20673;-64
2023/08/31 05:37:35;;;;;;;1.53;1.43;;;14.60;99.90;;;14.93;88.57;100205.94;4967868;28;20636;-63
2023/08/31 05:40:06;;;;;;;1.77;1.67;;;14.60;99.90;;;15.07;88.56;100210.69;4967560;28;20670;-64
2023/08/31 05:42:33;;;;;;;0.73;0.73;;;14.80;99.90;;;15.54;87.04;100225.28;4967658;28;20681;-64
2023/08/31 05:45:00;;;;;;;1.10;0.90;;;15.10;99.90;;;16.03;84.90;100225.66;4964572;28;20695;-64
2023/08/31 05:47:27;;;;;;;1.97;1.63;;;15.60;99.90;;;16.60;81.13;100225.00;4965983;28;21270;-63
2023/08/31 05:49:54;;;;;;;1.27;1.20;;;16.10;99.90;;;17.22;78.76;100225.50;4966607;28;20647;-65
2023/08/31 05:52:22;;;;;;;1.50;1.40;;;16.70;99.90;;;17.76;75.31;100224.91;4967699;28;21071;-64
2023/08/31 05:54:49;;;;;;;1.10;1.10;;;17.30;99.90;;;18.29;72.78;100230.41;4963464;28;20697;-64
2023/08/31 05:57:19;;;;;;;1.73;1.63;;;17.90;99.90;;;18.36;71.52;100230.56;4959434;28;20705;-64
2023/08/31 05:59:47;;;;;;;1.63;1.53;;;18.00;99.90;;;18.00;71.67;100235.44;4966415;28;21072;-64
2023/08/31 06:02:14;;;;;;;1.60;1.50;;;17.70;99.90;;;17.79;72.84;100227.22;4966069;28;21075;-64
2023/08/31 06:04:41;;;;;;;1.43;1.33;;;17.50;99.90;;;18.01;72.42;100234.47;4967620;28;20635;-64
2023/08/31 06:07:08;;;;;;;1.13;1.13;;;17.60;99.90;;;18.41;71.13;100231.72;4965665;28;20738;-64
2023/08/31 06:09:35;;;;;;;0.87;0.87;;;18.00;99.90;;;19.02;69.46;100232.78;4968736;28;20651;-64
2023/08/31 06:12:02;;;;;;;1.93;1.30;;;18.60;99.90;;;19.22;67.21;100234.84;4963174;28;20749;-64
2023/08/31 06:14:29;;;;;;;1.30;1.20;;;18.80;99.90;;;19.54;66.92;100235.63;4967994;28;21417;-64
2023/08/31 06:16:56;;;;;;;1.20;1.20;;;19.10;99.90;;;20.00;64.45;100237.22;4965032;28;20631;-63
2023/08/31 06:19:24;;;;;;;1.70;1.60;;;19.60;99.90;;;20.55;62.57;100229.69;4968707;28;20634;-64
2023/08/31 06:21:50;;;;;;;0.90;0.90;;;20.10;99.90;;;21.39;61.06;100236.19;4967264;28;20770;-64
2023/08/31 06:24:17;;;;;;;1.17;1.17;;;20.90;99.90;;;22.03;58.70;100239.66;4958311;28;20722;-65
2023/08/31 06:26:44;;;;;;;1.53;1.43;;;21.60;99.90;;;21.88;58.68;100231.78;4966601;28;20646;-65
2023/08/31 06:29:11;;;;;;;1.63;1.50;;;21.60;99.90;;;21.13;60.09;100235.91;4961602;28;20697;-64
2023/08/31 06:31:40;;;;;;;2.80;1.13;;;21.00;99.90;;;20.32;62.78;100249.34;4963373;28;20659;-64
2023/08/31 06:34:08;;;;;;;1.57;1.47;;;20.20;99.90;;;19.68;64.87;100248.09;4966697;28;20638;-64
2023/08/31 06:36:35;;;;;;;1.43;1.43;;;19.60;99.90;;;19.05;67.36;100240.41;4964739;28;20735;-65
2023/08/31 06:39:02;;;;;;;1.37;1.30;;;19.00;99.90;;;18.78;69.06;100232.94;4967822;28;20634;-64
2023/08/31 06:41:30;;;;;;;1.30;1.20;;;18.60;99.90;;;18.64;69.29;100237.13;4964475;28;21016;-65
2023/08/31 06:43:57;;;;;;;1.57;1.47;;;18.40;99.90;;;18.72;69.48;100244.19;4963798;28;20693;-64
2023/08/31 06:46:24;;;;;;;1.30;1.13;;;18.40;99.90;;;19.52;67.37;100253.50;4959983;28;20716;-63
2023/08/31 06:48:52;;;;;;;2.00;1.03;;;19.00;99.90;;;20.68;63.17;100258.19;4966443;28;20645;-63
2023/08/31 06:51:19;;;;;;;1.03;1.03;;;20.10;99.90;;;21.40;61.11;100259.91;4964850;28;21218;-64
2023/08/31 06:53:49;;;;;;;1.33;1.23;;;20.80;99.90;;;21.54;59.35;100259.03;4965019;28;20630;-65
2023/08/31 06:56:16;;;;;;;1.57;1.43;;;21.10;99.90;;;21.41;60.07;100261.56;4964234;28;20731;-64
2023/08/31 06:58:43;;;;;;;1.43;1.33;;;21.00;99.90;;;21.00;60.83;100262.28;4966336;28;21278;-64
2023/08/31 07:01:12;;;;;;;3.03;1.40;;;20.70;99.90;;;20.59;61.72;100265.41;4964008;28;20664;-64
2023/08/31 07:03:39;;;;;;;2.53;1.30;;;20.40;99.90;;;20.09;62.89;100273.22;4966629;28;22360;-64
2023/08/31 07:06:06;;;;;;;2.33;1.27;;;19.90;99.90;;;19.72;64.47;100281.97;4966890;28;20639;-65
2023/08/31 07:08:33;;;;;;;1.07;1.07;;;19.50;99.90;;;19.34;66.01;100272.31;4968163;28;20655;-64
2023/08/31 07:11:00;;;;;;;1.10;1.07;;;19.10;99.90;;;18.97;67.25;100274.81;4973133;28;21081;-64
2023/08/31 07:13:27;;;;;;;0.80;0.80;;;18.80;99.90;;;18.73;68.44;100277.53;4972792;28;20678;-64
2023/08/31 07:15:54;;;;;;;1.30;0.93;;;18.50;99.90;;;18.60;69.31;100286.00;4972182;28;21062;-65
2023/08/31 07:18:21;;;;;;;2.10;1.33;;;18.30;99.90;;;18.58;69.64;100299.41;4971980;28;21207;-64
2023/08/31 07:20:48;;;;;;;2.27;0.93;;;18.30;99.90;;;18.53;69.93;100290.31;4971897;28;20653;-64
2023/08/31 07:23:15;;;;;;;1.30;1.20;;;18.20;99.90;;;18.48;70.18;100284.75;4973104;28;21107;-64
2023/08/31 07:25:42;;;;;;;1.17;1.07;;;18.20;99.90;;;18.51;70.29;100287.84;4972013;28;20646;-64
2023/08/31 07:28:10;;;;;;;1.10;1.10;;;18.20;99.90;;;18.48;70.66;100293.47;4972825;28;20638;-64
2023/08/31 07:30:37;;;;;;;1.10;1.00;;;18.20;99.90;;;18.95;70.75;100284.75;4961396;28;20644;-65
2023/08/31 07:33:05;;;;;;;1.07;1.07;;;18.50;99.90;;;19.93;67.78;100295.34;4967689;28;20674;-64
2023/08/31 07:35:53;;;;;;;1.03;0.93;;;19.30;99.90;;;21.14;63.37;100299.44;4958380;28;20627;-63
2023/08/31 07:38:19;;;;;;;1.23;1.00;;;20.50;99.90;;;22.09;59.69;100297.31;4969872;28;21091;-64
2023/08/31 07:40:46;;;;;;;1.00;1.00;;;21.50;99.90;;;23.05;57.73;100298.16;4973910;28;20649;-64
2023/08/31 07:43:13;;;;;;;1.40;1.27;;;22.50;99.90;;;23.95;53.88;100305.75;4970934;28;20772;-64
2023/08/31 07:45:41;;;;;;;1.00;1.00;;;23.50;99.90;;;24.76;51.56;100295.66;4972978;28;20670;-64
2023/08/31 07:48:08;;;;;;;0.97;0.97;;;24.30;99.90;;;25.59;50.06;100300.84;4970469;28;20651;-62
2023/08/31 07:50:35;;;;;;;1.17;1.17;;;25.20;99.90;;;26.43;48.62;100297.75;4973623;28;20625;-64
2023/08/31 07:53:03;;;;;;;1.10;1.00;;;26.20;99.90;;;27.04;46.81;100305.72;4974736;28;20666;-63
2023/08/31 07:55:30;;;;;;;1.13;1.03;;;26.90;99.00;;;27.48;43.57;100310.72;4974305;28;20742;-64
2023/08/31 07:57:57;;;;;;;0.93;0.93;;;27.50;96.20;;;28.01;42.26;100316.94;4972885;28;20669;-62
2023/08/31 08:00:24;;;;;;;0.77;0.77;;;28.10;94.10;;;28.47;41.21;100318.03;4968356;28;21360;-61
2023/08/31 08:02:51;;;;;;;1.17;1.03;;;28.70;91.60;;;28.94;39.66;100333.88;4967841;28;21060;-63
2023/08/31 08:05:18;;;;;;;0.80;0.80;;;29.10;89.30;;;28.87;40.01;100335.06;4969905;28;20738;-64
2023/08/31 08:07:46;;;;;;;0.80;0.80;;;29.10;87.70;;;29.05;39.85;100335.72;4970361;28;20734;-63
2023/08/31 08:10:14;;;;;;;1.37;1.27;;;29.30;85.10;;;29.60;39.13;100330.63;4970986;28;21023;-64
2023/08/31 08:12:46;;;;;;;1.37;1.30;;;29.80;83.50;;;29.90;38.38;100338.44;4970404;28;20765;-63
2023/08/31 08:15:13;;;;;;;1.20;1.20;;;30.30;81.10;;;29.74;38.22;100334.69;4973007;28;20676;-62
2023/08/31 08:17:40;;;;;;;1.33;1.00;;;30.30;78.70;;;29.61;38.58;100331.44;4970051;28;20678;-61
2023/08/31 08:20:09;;;;;;;0.90;0.90;;;30.00;78.80;;;28.78;38.91;100345.34;4972343;28;20738;-64
2023/08/31 08:22:36;;;;;;;0.93;0.93;;;29.30;78.20;;;28.48;40.22;100343.81;4966892;28;20670;-64
2023/08/31 08:25:03;;;;;;;0.70;0.70;;;28.90;79.20;;;28.71;39.83;100344.66;4966464;28;21200;-64
2023/08/31 08:27:32;;;;;;;0.83;0.83;;;29.00;79.50;;;29.03;39.54;100348.56;4969325;28;20646;-65
2023/08/31 08:29:59;;;;;;;1.00;1.00;;;29.20;78.90;;;29.14;38.64;100354.97;4964507;28;20692;-64
2023/08/31 08:32:26;;;;;;;1.43;0.90;;;29.40;76.70;;;29.55;38.36;100354.75;4963040;28;20702;-63
2023/08/31 08:34:53;;;;;;;1.07;0.90;;;29.60;76.90;;;30.22;37.76;100346.78;4964933;28;20651;-64
2023/08/31 08:37:20;;;;;;;1.63;1.03;;;30.10;76.20;;;30.52;36.11;100349.97;4958738;28;20671;-63
2023/08/31 08:39:50;;;;;;;1.00;1.00;;;30.70;73.30;;;30.52;36.41;100360.72;4967277;28;20674;-63
2023/08/31 08:42:24;;;;;;;0.90;0.90;;;30.70;72.70;;;29.81;36.70;100354.16;4958774;28;20688;-64
2023/08/31 08:44:52;;;;;;;0.90;0.90;;;30.20;72.30;;;29.25;38.13;100356.84;4968530;28;20689;-63
2023/08/31 08:47:19;;;;;;;0.90;0.90;;;29.50;73.90;;;28.36;39.46;100351.88;4966744;28;21079;-64
2023/08/31 08:49:47;;;;;;;0.80;0.77;;;28.60;74.80;;;28.96;37.92;100353.25;4968394;28;20684;-64
2023/08/31 08:52:15;;;;;;;1.63;0.70;;;28.80;73.40;;;29.77;35.52;100354.91;4966956;28;20760;-64
2023/08/31 08:54:42;;;;;;;0.97;0.97;;;29.70;70.70;;;30.47;34.71;100350.72;4965288;28;21076;-64
2023/08/31 08:57:09;;;;;;;2.30;2.20;;;30.20;70.10;;;30.91;33.76;100359.72;4966777;28;20980;-64
2023/08/31 08:59:36;;;;;;;1.80;1.43;;;30.60;68.20;;;31.25;32.91;100355.00;4967706;28;21121;-64
2023/08/31 09:02:03;;;;;;;0.93;0.93;;;30.90;67.00;;;31.49;32.51;100361.78;4969281;28;20716;-64
2023/08/31 09:04:32;;;;;;;0.97;0.80;;;31.10;66.30;;;31.37;32.33;100359.19;4964784;28;21048;-63
2023/08/31 09:06:59;;;;;;;1.70;1.20;;;31.20;65.20;;;31.07;32.29;100355.34;4967718;28;21155;-63
2023/08/31 09:09:26;;;;;;;0.80;0.80;;;31.00;64.50;;;31.00;32.62;100360.91;4965728;28;21035;-63
2023/08/31 09:11:55;;;;;;;0.63;0.63;;;30.80;64.70;;;30.59;33.15;100354.13;4966727;28;20682;-63
2023/08/31 09:14:22;;;;;;;1.90;1.07;;;30.60;64.90;;;30.13;34.23;100354.47;4968550;28;20644;-64
2023/08/31 09:16:51;;;;;;;1.30;1.20;;;29.90;65.90;;;29.99;34.59;100349.63;4966558;28;20643;-62
2023/08/31 09:19:24;;;;;;;1.13;1.13;;;29.60;66.90;;;29.79;34.55;100342.03;4968167;28;21024;-65
2023/08/31 09:21:55;;;;;;;16.33;10.53;;;29.20;67.10;;;29.52;35.37;100340.94;4968305;28;20734;-64
2023/08/31 09:24:23;;;;;;;3.33;2.60;;;29.00;67.60;;;29.17;35.56;100340.28;4966358;28;21053;-63
2023/08/31 09:26:58;;;;;;;1.30;0.90;;;28.60;67.80;;;28.56;36.03;100343.47;4968200;28;20663;-65
2023/08/31 09:29:25;;;;;;;1.10;0.80;;;28.10;68.00;;;27.97;37.85;100331.06;4999459;28;20645;-66
2023/08/31 09:31:52;;;;;;;0.90;0.90;;;27.60;69.40;;;27.54;38.31;100340.09;4962576;28;21267;-65
2023/08/31 09:34:19;;;;;;;0.97;0.97;;;27.10;70.20;;;27.15;39.05;100343.28;4967835;28;20689;-66
2023/08/31 09:36:46;;;;;;;1.73;1.00;;;26.80;71.40;;;26.58;39.13;100335.63;4964588;28;20700;-66
2023/08/31 09:39:14;;;;;;;1.67;1.00;;;26.30;70.90;;;26.15;39.50;100336.44;4984998;28;20635;-65
2023/08/31 09:41:54;;;;;;;0.80;0.80;;;25.90;72.00;;;25.77;40.81;100341.00;4966514;28;20663;-66
2023/08/31 09:44:22;;;;;;;0.90;0.90;;;25.50;72.80;;;25.62;41.42;100337.81;4967253;28;21470;-66
2023/08/31 09:46:49;;;;;;;0.90;0.90;;;25.20;74.00;;;25.46;41.24;100340.16;4961017;28;20640;-66
2023/08/31 09:49:17;;;;;;;1.13;0.90;;;25.10;73.70;;;25.16;41.43;100340.69;4974816;28;20640;-66
2023/08/31 09:51:46;;;;;;;0.90;0.90;;;24.80;73.50;;;24.73;42.01;100338.72;4967939;28;20655;-65
2023/08/31 09:54:18;;;;;;;0.87;0.87;;;24.40;73.80;;;24.39;42.67;100337.97;4964535;28;20646;-65
2023/08/31 09:56:47;;;;;;;0.80;0.80;;;24.10;75.30;;;24.16;42.56;100326.09;4968725;28;20631;-66
2023/08/31 09:59:16;;;;;;;0.93;0.83;;;23.90;75.50;;;24.03;43.06;100334.03;4964929;28;21207;-66
2023/08/31 10:01:46;;;;;;;0.70;0.60;;;23.70;76.20;;;23.98;43.47;100331.19;4963452;28;20732;-66
2023/08/31 10:04:14;;;;;;;1.73;0.97;;;23.60;76.70;;;24.00;42.31;100337.13;4965836;28;20675;-65
2023/08/31 10:06:42;;;;;;;0.60;0.60;;;23.60;75.40;;;24.04;42.38;100333.03;4963720;28;20647;-66
2023/08/31 10:09:09;;;;;;;1.00;1.00;;;23.60;75.10;;;24.11;42.68;100340.03;4966694;28;20682;-66
2023/08/31 10:11:39;;;;;;;0.63;0.63;;;23.70;75.10;;;24.39;42.60;100326.47;4965626;28;20655;-67
2023/08/31 10:14:07;;;;;;;0.90;0.90;;;24.10;75.30;;;24.92;41.83;100329.88;4963561;28;21204;-67
2023/08/31 10:16:35;;;;;;;1.03;0.93;;;24.70;74.30;;;25.57;40.58;100331.50;4963718;28;20976;-67
2023/08/31 10:19:04;;;;;;;0.80;0.80;;;25.40;73.10;;;26.30;39.77;100337.97;4967463;28;20639;-66